CheckWX is a tool to help pilots better visualize weather data.  It is not intended as a substitute for an official pre-flight weather briefing.

15:29:06 UTC

ENHF METAR
Hammerfest Airport
Hammerfest, Norway
Current

39 mins ago

ENHF 261450Z 03005KT 350V070 9999 SCT014 BKN033 05/02 Q0999 RMK WIND 1254FT 01009KT
Observed
May-26 @ 14:50 UTC
Wind
  • 030° at 5 KTS
Visibility
10,000+ meters
Flight Rules
VFR
Cloud Levels
  • Scattered at 1,400' AGL
  • Broken at 3,300' AGL
Temperature
C / 41°F
Dewpoint
C / 36°F
Humidity
81%
Altimeter
29.5" Hg
Pressure
998.92 hPa
Previous

1 hour ago

ENHF 261420Z 07008KT 9999 SCT031 BKN040 04/02 Q0999 REUP RMK WIND 1254FT 06007KT
Observed
May-26 @ 14:20 UTC
Wind
  • 070° at 8 KTS
Visibility
10,000+ meters
Flight Rules
VFR
Cloud Levels
  • Scattered at 3,100' AGL
  • Broken at 4,000' AGL
Temperature
C / 39°F
Dewpoint
C / 36°F
Humidity
87%
Altimeter
29.5" Hg
Pressure
998.92 hPa
Previous

2 hours ago

ENHF 261350Z 06008KT 9999 BKN040 05/02 Q0999 RMK WIND 1254FT 06006KT
Observed
May-26 @ 13:50 UTC
Wind
  • 060° at 8 KTS
Visibility
10,000+ meters
Flight Rules
VFR
Cloud Levels
  • Broken at 4,000' AGL
Temperature
C / 41°F
Dewpoint
C / 36°F
Humidity
81%
Altimeter
29.5" Hg
Pressure
998.92 hPa